North Easton, Massachusetts
Current Conditions -  °F | °C
As of 10:53 PM on Friday 19 Dec 2014 (Local Time) from KOWD Reporting Station
Clear Clear  
Wind Chill: 27°   Ceiling: Unl
Heat Index: 27°   Visibility: 10mi
Dew Point: 20°   Wind: 3mph
Humidity: 75%   Direction: 310°NW
Pressure: 30.13"   Gusts: NA
Location:  42.07°N, 71.1°W
Report Text: KOWD 200353Z AUTO 31003KT 10SM CLR M03/M07 A3013 RMK AO2 SLP203 T10281067
Loading
Personal Weather Stations






























Interactive Weather Map New forecast layout! Learn more

10-Day Weather Forecast

Advertisements
Track Severe Weather on mobile